createdAt,value
2022-12-07T00:01:08.750Z,4.00
2022-12-07T00:03:39.375Z,4.00
2022-12-07T00:06:08.772Z,4.00
2022-12-07T00:08:37.705Z,3.80
2022-12-07T00:11:08.624Z,4.00
2022-12-07T00:13:38.006Z,4.00
2022-12-07T00:16:07.864Z,4.00
2022-12-07T00:18:36.217Z,4.00
2022-12-07T00:21:05.874Z,4.00
2022-12-07T00:23:34.504Z,4.10
2022-12-07T00:26:07.880Z,4.00
2022-12-07T00:28:36.059Z,4.10
2022-12-07T00:31:05.809Z,4.10
2022-12-07T00:33:34.125Z,5.20
2022-12-07T00:36:03.514Z,4.10
2022-12-07T00:38:33.657Z,4.00
2022-12-07T00:41:03.383Z,4.10
2022-12-07T00:43:33.035Z,4.10
2022-12-07T00:46:01.326Z,5.00
2022-12-07T00:48:29.290Z,4.20
2022-12-07T00:50:57.223Z,4.80
2022-12-07T00:53:25.481Z,4.20
2022-12-07T00:55:53.690Z,4.30
2022-12-07T00:58:22.042Z,6.10
2022-12-07T01:00:51.931Z,4.90
2022-12-07T01:03:20.396Z,5.90
2022-12-07T01:05:52.653Z,5.70
2022-12-07T01:08:21.119Z,3.70
2022-12-07T01:10:49.509Z,4.30
2022-12-07T01:13:18.058Z,4.60
2022-12-07T01:15:46.682Z,5.00
2022-12-07T01:18:15.982Z,5.40
2022-12-07T01:20:43.890Z,4.20
2022-12-07T01:23:11.756Z,4.30
2022-12-07T01:25:39.680Z,4.30
2022-12-07T01:28:07.589Z,5.30
2022-12-07T01:30:35.522Z,4.30
2022-12-07T01:33:03.521Z,4.30
2022-12-07T01:35:35.817Z,4.20
2022-12-07T01:38:03.743Z,4.20
2022-12-07T01:40:31.699Z,5.60
2022-12-07T01:42:59.593Z,4.10
2022-12-07T01:45:45.711Z,5.90
2022-12-07T01:48:17.321Z,5.80
2022-12-07T01:50:49.748Z,5.60
2022-12-07T01:53:18.658Z,3.90
2022-12-07T01:55:50.447Z,3.80
2022-12-07T01:58:19.019Z,3.80
2022-12-07T02:00:47.245Z,3.80
2022-12-07T02:03:19.806Z,3.70
2022-12-07T02:05:50.115Z,3.70
2022-12-07T02:08:19.767Z,3.70
2022-12-07T02:10:48.116Z,3.60
2022-12-07T02:13:20.629Z,3.50
2022-12-07T02:16:06.105Z,5.50
2022-12-07T02:18:46.722Z,3.40
2022-12-07T02:21:22.421Z,3.30
2022-12-07T02:24:16.268Z,3.00
2022-12-07T02:27:30.388Z,3.20
2022-12-07T02:30:03.320Z,3.10
2022-12-07T02:32:42.278Z,3.10
2022-12-07T02:35:14.814Z,3.00
2022-12-07T02:37:49.086Z,4.10
2022-12-07T02:40:21.507Z,3.00
2022-12-07T02:45:22.794Z,2.90
2022-12-07T02:47:53.813Z,2.70
2022-12-07T02:50:23.089Z,2.80
2022-12-07T02:52:51.210Z,2.80
2022-12-07T02:55:24.747Z,3.10
2022-12-07T02:58:07.570Z,2.70
2022-12-07T03:00:48.567Z,2.80
2022-12-07T03:03:17.303Z,2.80
2022-12-07T03:06:08.602Z,2.70
2022-12-07T03:08:46.066Z,2.70
2022-12-07T03:11:21.920Z,2.70
2022-12-07T03:13:56.265Z,4.10
2022-12-07T03:16:29.214Z,4.40
2022-12-07T03:19:01.318Z,4.10
2022-12-07T03:21:33.101Z,2.70
2022-12-07T03:24:05.160Z,3.30
2022-12-07T03:26:37.508Z,5.00
2022-12-07T03:29:09.940Z,5.00
2022-12-07T03:31:42.452Z,5.00
2022-12-07T03:34:16.371Z,3.80
2022-12-07T03:36:49.125Z,2.00
2022-12-07T03:39:24.762Z,4.60
2022-12-07T03:41:53.975Z,2.60
2022-12-07T03:44:22.942Z,2.50
2022-12-07T03:47:03.249Z,4.40
2022-12-07T03:49:39.493Z,2.50
2022-12-07T03:52:14.642Z,2.50
2022-12-07T03:54:47.688Z,2.50
2022-12-07T03:57:16.150Z,4.00
2022-12-07T03:59:44.876Z,4.70
2022-12-07T04:02:15.714Z,3.50
2022-12-07T04:04:45.137Z,2.50
2022-12-07T04:07:13.836Z,3.90
2022-12-07T04:09:41.735Z,2.50
2022-12-07T04:12:09.909Z,2.50
2022-12-07T04:14:37.921Z,2.50
2022-12-07T04:17:06.067Z,2.50
2022-12-07T04:19:36.594Z,2.50
2022-12-07T04:22:06.698Z,2.30
2022-12-07T04:24:35.184Z,2.60
2022-12-07T04:27:03.143Z,2.70
2022-12-07T04:29:31.094Z,4.10
2022-12-07T04:31:59.034Z,2.70
2022-12-07T04:34:26.924Z,4.00
2022-12-07T04:36:56.215Z,3.50
2022-12-07T04:39:27.098Z,5.00
2022-12-07T04:41:55.558Z,4.90
2022-12-07T04:44:24.497Z,2.50
2022-12-07T04:46:52.784Z,2.60
2022-12-07T04:49:21.454Z,2.50
2022-12-07T04:51:49.577Z,2.50
2022-12-07T04:54:19.173Z,2.50
2022-12-07T04:56:47.419Z,2.40
2022-12-07T04:59:17.554Z,2.50
2022-12-07T05:01:46.181Z,2.40
2022-12-07T05:04:14.277Z,2.00
2022-12-07T05:06:42.155Z,2.40
2022-12-07T05:09:10.297Z,2.40
2022-12-07T05:11:42.410Z,2.40
2022-12-07T05:14:14.000Z,3.30
2022-12-07T05:16:44.000Z,3.80
2022-12-07T05:19:12.291Z,4.50
2022-12-07T05:21:41.302Z,2.40
2022-12-07T05:24:10.329Z,2.50
2022-12-07T05:26:39.576Z,2.60
2022-12-07T05:29:07.515Z,2.60
2022-12-07T05:31:35.686Z,2.50
2022-12-07T05:34:04.012Z,2.60
2022-12-07T05:36:33.005Z,2.70
2022-12-07T05:39:01.070Z,2.70
2022-12-07T05:41:46.805Z,2.60
2022-12-07T05:44:16.077Z,4.60
2022-12-07T05:46:44.040Z,2.70
2022-12-07T05:49:11.947Z,2.70
2022-12-07T05:51:39.862Z,2.70
2022-12-07T05:54:07.734Z,2.70
2022-12-07T05:56:35.725Z,2.70
2022-12-07T05:59:21.133Z,2.70
2022-12-07T06:01:50.575Z,4.80
2022-12-07T06:04:18.987Z,3.80
2022-12-07T06:06:46.912Z,2.80
2022-12-07T06:09:15.197Z,2.80
2022-12-07T06:12:01.068Z,2.80
2022-12-07T06:14:29.236Z,3.70
2022-12-07T06:16:58.820Z,2.90
2022-12-07T06:19:26.801Z,2.90
2022-12-07T06:21:56.344Z,4.00
2022-12-07T06:24:24.862Z,3.80
2022-12-07T06:26:52.945Z,3.00
2022-12-07T06:29:20.851Z,3.00
2022-12-07T06:31:48.815Z,2.90
2022-12-07T06:34:19.932Z,2.90
2022-12-07T06:36:51.985Z,3.00
2022-12-07T06:39:20.702Z,4.90
2022-12-07T06:41:48.575Z,2.90
2022-12-07T06:44:16.570Z,3.00
2022-12-07T06:46:44.531Z,4.80
2022-12-07T06:49:12.782Z,2.90
2022-12-07T06:51:42.963Z,3.00
2022-12-07T06:54:11.466Z,3.00
2022-12-07T06:56:39.643Z,3.00
2022-12-07T06:59:08.291Z,2.90
2022-12-07T07:01:37.793Z,2.90
2022-12-07T07:04:06.145Z,2.90
2022-12-07T07:06:34.073Z,2.80
2022-12-07T07:09:03.395Z,3.80
2022-12-07T07:11:31.423Z,2.80
2022-12-07T07:14:03.031Z,2.80
2022-12-07T07:16:32.020Z,2.70
2022-12-07T07:19:00.081Z,2.80
2022-12-07T07:21:28.034Z,2.70
2022-12-07T07:23:55.948Z,2.70
2022-12-07T07:26:25.319Z,4.20
2022-12-07T07:28:53.209Z,2.80
2022-12-07T07:31:21.114Z,4.20
2022-12-07T07:33:49.083Z,4.30
2022-12-07T07:36:17.039Z,4.20
2022-12-07T07:38:44.922Z,2.80
2022-12-07T07:41:12.893Z,2.80
2022-12-07T07:43:42.107Z,2.80
2022-12-07T07:46:10.062Z,2.80
2022-12-07T07:48:37.989Z,2.80
2022-12-07T07:51:08.063Z,2.80
2022-12-07T07:53:36.049Z,2.80
2022-12-07T07:56:04.306Z,2.80
2022-12-07T07:58:32.244Z,2.80
2022-12-07T08:01:07.361Z,3.90
2022-12-07T08:03:35.556Z,2.80
2022-12-07T08:06:04.745Z,2.80
2022-12-07T08:08:32.698Z,2.80
2022-12-07T08:11:02.067Z,4.50
2022-12-07T08:13:31.473Z,4.60
2022-12-07T08:16:00.316Z,3.00
2022-12-07T08:18:29.680Z,3.00
2022-12-07T08:21:02.414Z,3.00
2022-12-07T08:23:37.625Z,3.00
2022-12-07T08:26:10.856Z,2.90
2022-12-07T08:28:39.274Z,3.10
2022-12-07T08:31:09.976Z,2.90
2022-12-07T08:33:40.218Z,3.20
2022-12-07T08:36:10.968Z,3.20
2022-12-07T08:38:39.988Z,3.20
2022-12-07T08:41:08.863Z,4.30
2022-12-07T08:43:37.190Z,4.80
2022-12-07T08:46:11.009Z,3.30
2022-12-07T08:48:43.943Z,3.20
2022-12-07T08:51:12.624Z,3.10
2022-12-07T08:53:43.255Z,3.50
2022-12-07T08:56:11.770Z,3.50
2022-12-07T08:58:41.152Z,3.50
2022-12-07T09:01:09.359Z,3.50
2022-12-07T09:03:37.478Z,3.60
2022-12-07T09:06:07.617Z,3.60
2022-12-07T09:08:39.618Z,3.60
2022-12-07T09:11:07.597Z,3.60
2022-12-07T09:13:35.569Z,3.70
2022-12-07T09:16:03.514Z,3.70
2022-12-07T09:18:31.540Z,3.70
2022-12-07T09:20:59.831Z,3.70
2022-12-07T09:23:29.045Z,3.60
2022-12-07T09:25:56.979Z,4.20
2022-12-07T09:28:24.885Z,3.60
2022-12-07T09:31:22.349Z,3.70
2022-12-07T09:33:42.362Z,3.80
2022-12-07T09:36:11.126Z,3.90
2022-12-07T09:38:40.465Z,4.00
2022-12-07T09:41:09.140Z,4.00
2022-12-07T09:43:39.187Z,4.00
2022-12-07T09:46:07.192Z,5.10
2022-12-07T09:48:38.433Z,4.00
2022-12-07T09:51:22.807Z,4.10
2022-12-07T09:53:54.986Z,3.50
2022-12-07T09:56:24.772Z,5.00
2022-12-07T09:58:56.933Z,4.10
2022-12-07T10:01:24.936Z,4.20
2022-12-07T10:03:56.166Z,4.40
2022-12-07T10:06:24.181Z,4.40
2022-12-07T10:08:53.487Z,5.80
2022-12-07T10:11:22.018Z,4.90
2022-12-07T10:13:54.062Z,4.40
2022-12-07T10:16:39.053Z,4.40
2022-12-07T10:19:22.297Z,4.30
2022-12-07T10:22:10.892Z,4.80
2022-12-07T10:24:41.897Z,4.80
2022-12-07T10:27:20.894Z,4.30
2022-12-07T10:29:53.681Z,4.20
2022-12-07T10:32:35.020Z,5.40
2022-12-07T10:35:24.606Z,6.00
2022-12-07T10:37:53.827Z,4.50
2022-12-07T10:40:32.872Z,4.50
2022-12-07T10:43:17.972Z,4.80
2022-12-07T10:46:14.771Z,4.60
2022-12-07T10:48:53.271Z,5.20
2022-12-07T10:51:31.485Z,4.70
2022-12-07T10:54:12.415Z,5.90
2022-12-07T10:57:02.741Z,6.10
2022-12-07T10:59:44.560Z,5.30
2022-12-07T11:02:26.529Z,6.30
2022-12-07T11:05:04.375Z,6.00
2022-12-07T11:07:43.263Z,6.20
2022-12-07T11:10:17.653Z,5.70
2022-12-07T11:13:07.754Z,5.40
2022-12-07T11:15:45.182Z,5.10
2022-12-07T11:18:24.033Z,5.10
2022-12-07T11:21:00.467Z,5.80
2022-12-07T11:23:37.519Z,5.50
2022-12-07T11:26:15.413Z,5.10
2022-12-07T11:29:03.992Z,5.10
2022-12-07T11:31:39.753Z,5.20
2022-12-07T11:34:17.222Z,5.70
2022-12-07T11:36:47.407Z,5.20
2022-12-07T11:39:26.056Z,5.50
2022-12-07T11:41:58.774Z,6.40
2022-12-07T11:44:36.516Z,5.70
2022-12-07T11:47:10.416Z,6.00
2022-12-07T11:49:47.174Z,5.20
2022-12-07T11:52:24.469Z,7.30
2022-12-07T11:54:54.729Z,5.70
2022-12-07T11:57:28.094Z,6.30
2022-12-07T12:00:03.148Z,5.20
2022-12-07T12:02:38.880Z,6.10
2022-12-07T12:05:17.151Z,5.20
2022-12-07T12:10:47.827Z,5.30
2022-12-07T12:16:54.587Z,5.40
2022-12-07T12:19:34.318Z,5.50
2022-12-07T12:22:10.829Z,5.50
2022-12-07T12:24:41.722Z,6.40
2022-12-07T12:27:12.367Z,6.60
2022-12-07T12:29:42.564Z,6.40
2022-12-07T12:32:18.933Z,6.10
2022-12-07T12:35:22.241Z,5.50
2022-12-07T12:37:50.282Z,5.50
2022-12-07T12:40:50.169Z,5.50
2022-12-07T12:43:58.683Z,5.50
2022-12-07T12:46:52.296Z,5.50
2022-12-07T12:50:06.056Z,5.50
2022-12-07T12:52:55.423Z,5.50
2022-12-07T12:56:08.842Z,5.50
2022-12-07T12:58:43.139Z,5.50
2022-12-07T13:01:42.777Z,6.00
2022-12-07T13:04:32.680Z,5.50
2022-12-07T13:07:00.630Z,5.50
2022-12-07T13:09:32.450Z,5.60
2022-12-07T13:12:07.299Z,5.70
2022-12-07T13:14:57.880Z,5.40
2022-12-07T13:18:01.645Z,5.40
2022-12-07T13:21:00.039Z,5.40
2022-12-07T13:23:34.727Z,5.40
2022-12-07T13:26:25.262Z,6.50
2022-12-07T13:29:07.123Z,5.30
2022-12-07T13:31:36.857Z,6.40
2022-12-07T13:34:06.494Z,5.20
2022-12-07T13:36:38.976Z,5.20
2022-12-07T13:39:23.549Z,5.90
2022-12-07T13:41:55.849Z,5.10
2022-12-07T13:44:24.618Z,5.10
2022-12-07T13:46:59.850Z,5.10
2022-12-07T13:49:29.299Z,6.00
2022-12-07T13:52:15.536Z,5.00
2022-12-07T13:54:47.261Z,6.10
2022-12-07T13:57:17.340Z,5.60
2022-12-07T13:59:45.416Z,6.00
2022-12-07T14:02:22.261Z,5.90
2022-12-07T14:04:52.572Z,4.80
2022-12-07T14:07:24.596Z,4.90
2022-12-07T14:10:01.346Z,6.20
2022-12-07T14:12:32.287Z,5.70
2022-12-07T14:15:03.357Z,4.80
2022-12-07T14:17:31.688Z,5.60
2022-12-07T14:20:00.937Z,6.00
2022-12-07T14:22:31.680Z,4.60
2022-12-07T14:25:21.904Z,5.50
2022-12-07T14:27:57.226Z,4.60
2022-12-07T14:30:27.059Z,6.20
2022-12-07T14:32:59.038Z,4.60
2022-12-07T14:35:27.060Z,5.40
2022-12-07T14:37:55.166Z,4.50
2022-12-07T14:40:25.742Z,4.50
2022-12-07T14:42:59.166Z,4.30
2022-12-07T14:45:27.013Z,4.50
2022-12-07T14:53:42.669Z,4.20
2022-12-07T14:56:10.585Z,4.20
2022-12-07T14:58:39.830Z,4.00
2022-12-07T15:01:07.739Z,5.70
2022-12-07T15:03:38.249Z,5.40
2022-12-07T15:06:07.334Z,4.50
2022-12-07T15:08:35.393Z,3.90
2022-12-07T15:11:03.632Z,3.80
2022-12-07T15:13:48.848Z,3.80
2022-12-07T15:16:21.926Z,4.80
2022-12-07T15:19:19.442Z,3.70
2022-12-07T15:21:37.746Z,5.00
2022-12-07T15:24:05.904Z,3.60
2022-12-07T15:26:33.802Z,3.50
2022-12-07T15:29:01.725Z,5.20
2022-12-07T15:34:18.915Z,3.30
2022-12-07T15:36:46.932Z,3.30
2022-12-07T15:39:15.370Z,3.30
2022-12-07T15:41:43.728Z,3.20
2022-12-07T15:44:31.487Z,3.20
2022-12-07T15:47:01.190Z,3.20
2022-12-07T15:49:29.697Z,3.20
2022-12-07T15:51:57.620Z,3.10
2022-12-07T15:54:26.980Z,3.10
2022-12-07T15:56:55.293Z,3.10
2022-12-07T15:59:23.289Z,3.10
2022-12-07T16:01:51.367Z,3.10
2022-12-07T16:04:21.042Z,3.00
2022-12-07T16:06:49.025Z,2.80
2022-12-07T16:09:16.941Z,3.10
2022-12-07T16:11:44.836Z,3.00
2022-12-07T16:14:12.800Z,3.00
2022-12-07T16:16:42.608Z,4.60
2022-12-07T16:19:11.811Z,4.20
2022-12-07T16:21:41.511Z,3.00
2022-12-07T16:24:11.041Z,3.00
2022-12-07T16:26:38.969Z,3.00
2022-12-07T16:29:06.869Z,2.90
2022-12-07T16:31:34.933Z,3.30
2022-12-07T16:34:02.910Z,4.00
2022-12-07T16:39:19.994Z,2.90
2022-12-07T16:41:48.013Z,3.60
2022-12-07T16:44:15.950Z,2.90
2022-12-07T16:46:44.723Z,2.90
2022-12-07T16:49:14.733Z,3.10
2022-12-07T16:51:43.740Z,2.80
2022-12-07T16:54:13.021Z,2.80
2022-12-07T16:56:42.634Z,2.80
2022-12-07T16:59:10.769Z,2.80
2022-12-07T17:01:39.196Z,2.80
2022-12-07T17:04:08.199Z,2.80
2022-12-07T17:06:36.191Z,2.70
2022-12-07T17:09:05.262Z,2.70
2022-12-07T17:11:33.217Z,2.70
2022-12-07T17:14:19.906Z,2.70
2022-12-07T17:16:47.942Z,3.80
2022-12-07T17:19:17.375Z,2.60
2022-12-07T17:21:45.662Z,2.60
2022-12-07T17:24:16.176Z,2.50
2022-12-07T17:26:46.217Z,2.50
2022-12-07T17:29:18.225Z,2.50
2022-12-07T17:31:51.294Z,2.50
2022-12-07T17:34:19.799Z,2.50
2022-12-07T17:36:48.257Z,2.50
2022-12-07T17:39:19.139Z,2.50
2022-12-07T17:42:04.584Z,2.50
2022-12-07T17:44:34.084Z,2.50
2022-12-07T17:47:02.673Z,2.90
2022-12-07T17:49:31.086Z,2.60
2022-12-07T17:52:16.686Z,2.80
2022-12-07T17:54:45.146Z,2.60
2022-12-07T17:57:13.185Z,2.70
2022-12-07T17:59:42.625Z,3.30
2022-12-07T18:02:11.620Z,2.70
2022-12-07T18:04:40.108Z,4.80
2022-12-07T18:07:08.292Z,2.80
2022-12-07T18:09:36.870Z,2.80
2022-12-07T18:12:05.981Z,2.80
2022-12-07T18:14:34.044Z,2.80
2022-12-07T18:17:03.360Z,3.00
2022-12-07T18:19:31.365Z,2.90
2022-12-07T18:21:59.292Z,4.90
2022-12-07T18:24:30.678Z,2.90
2022-12-07T18:27:02.908Z,2.60
2022-12-07T18:29:30.838Z,3.60
2022-12-07T18:31:58.994Z,2.90
2022-12-07T18:34:30.361Z,2.90
2022-12-07T18:36:58.323Z,2.90
2022-12-07T18:39:31.630Z,3.90
2022-12-07T18:42:01.499Z,2.90
2022-12-07T18:44:29.415Z,2.90
2022-12-07T18:46:57.465Z,4.00
2022-12-07T18:49:25.627Z,2.90
2022-12-07T18:51:54.916Z,2.90
2022-12-07T18:54:22.927Z,2.90
2022-12-07T18:56:55.424Z,2.90
2022-12-07T18:59:40.949Z,5.10
2022-12-07T19:02:09.082Z,2.20
2022-12-07T19:04:37.163Z,2.90
2022-12-07T19:07:06.896Z,2.90
2022-12-07T19:09:34.832Z,3.10
2022-12-07T19:12:05.257Z,4.10
2022-12-07T19:14:35.074Z,4.80
2022-12-07T19:17:06.048Z,4.90
2022-12-07T19:19:36.577Z,4.80
2022-12-07T19:22:06.780Z,2.80
2022-12-07T19:24:35.561Z,2.80
2022-12-07T19:27:04.837Z,3.30
2022-12-07T19:29:33.221Z,2.80
2022-12-07T19:32:01.623Z,2.80
2022-12-07T19:34:29.838Z,3.10
2022-12-07T19:36:58.097Z,2.80
2022-12-07T19:39:27.691Z,2.80
2022-12-07T19:41:55.603Z,3.40
2022-12-07T19:44:26.241Z,2.70
2022-12-07T19:47:01.080Z,2.80
2022-12-07T19:49:34.046Z,2.80
2022-12-07T19:52:04.228Z,2.80
2022-12-07T19:54:34.195Z,2.80
2022-12-07T19:57:04.295Z,2.80
2022-12-07T19:59:32.477Z,2.80
2022-12-07T20:02:00.525Z,2.80
2022-12-07T20:04:31.196Z,2.80
2022-12-07T20:07:00.530Z,2.80
2022-12-07T20:09:28.605Z,3.20
2022-12-07T20:12:15.258Z,4.00
2022-12-07T20:14:43.304Z,2.90
2022-12-07T20:17:11.246Z,2.90
2022-12-07T20:19:39.946Z,2.90
2022-12-07T20:22:07.899Z,1.60
2022-12-07T20:24:36.302Z,2.90
2022-12-07T20:27:06.020Z,2.90
2022-12-07T20:29:34.270Z,2.80
2022-12-07T20:32:02.577Z,2.70
2022-12-07T20:34:30.504Z,2.70
2022-12-07T20:36:58.489Z,2.70
2022-12-07T20:39:26.403Z,2.60
2022-12-07T20:42:11.904Z,2.60
2022-12-07T20:44:41.169Z,2.50
2022-12-07T20:47:09.050Z,2.50
2022-12-07T20:49:36.997Z,2.50
2022-12-07T20:52:05.477Z,2.50
2022-12-07T20:54:33.371Z,2.50
2022-12-07T20:57:01.289Z,3.90
2022-12-07T20:59:29.201Z,2.50
2022-12-07T21:01:58.559Z,2.50
2022-12-07T21:04:26.465Z,1.80
2022-12-07T21:06:54.388Z,2.50
2022-12-07T21:09:26.767Z,2.50
2022-12-07T21:11:55.129Z,2.50
2022-12-07T21:14:23.234Z,2.50
2022-12-07T21:16:51.214Z,2.50
2022-12-07T21:19:20.502Z,2.50
2022-12-07T21:21:48.344Z,2.40
2022-12-07T21:24:16.245Z,2.50
2022-12-07T21:26:44.152Z,2.50
2022-12-07T21:29:12.072Z,2.50
2022-12-07T21:31:40.051Z,2.40
2022-12-07T21:34:08.211Z,2.20
2022-12-07T21:36:38.039Z,4.00
2022-12-07T21:39:06.393Z,2.50
2022-12-07T21:41:36.184Z,2.60
2022-12-07T21:44:07.293Z,2.60
2022-12-07T21:46:35.532Z,4.70
2022-12-07T21:49:05.763Z,2.60
2022-12-07T21:51:33.944Z,2.70
2022-12-07T21:54:04.843Z,2.70
2022-12-07T21:56:33.977Z,2.70
2022-12-07T21:59:03.318Z,3.10
2022-12-07T22:01:37.520Z,2.70
2022-12-07T22:04:07.382Z,2.80
2022-12-07T22:06:36.915Z,2.80
2022-12-07T22:09:07.177Z,2.60
2022-12-07T22:11:36.559Z,2.80
2022-12-07T22:14:22.961Z,2.80
2022-12-07T22:16:51.034Z,3.80
2022-12-07T22:19:19.131Z,2.90
2022-12-07T22:21:47.204Z,2.90
2022-12-07T22:24:16.721Z,2.90
2022-12-07T22:26:45.337Z,2.90
2022-12-07T22:29:13.491Z,2.90
2022-12-07T22:31:41.997Z,2.90
2022-12-07T22:34:16.629Z,2.90
2022-12-07T22:36:44.869Z,2.90
2022-12-07T22:39:13.074Z,2.90
2022-12-07T22:41:42.657Z,2.90
2022-12-07T22:44:10.986Z,2.90
2022-12-07T22:46:39.924Z,3.00
2022-12-07T22:49:08.247Z,2.90
2022-12-07T22:51:38.266Z,2.90
2022-12-07T22:54:08.466Z,2.90
2022-12-07T22:56:38.623Z,2.90
2022-12-07T22:59:08.707Z,2.90
2022-12-07T23:01:37.128Z,2.90
2022-12-07T23:04:05.212Z,2.40
2022-12-07T23:06:36.248Z,2.90
2022-12-07T23:09:06.662Z,4.10
2022-12-07T23:11:54.207Z,2.90
2022-12-07T23:14:29.512Z,3.40
2022-12-07T23:16:57.489Z,2.70
2022-12-07T23:19:25.694Z,2.70
2022-12-07T23:21:53.894Z,2.60
2022-12-07T23:24:21.759Z,2.60
2022-12-07T23:26:49.794Z,2.50
2022-12-07T23:29:18.344Z,2.50
2022-12-07T23:31:48.480Z,2.50
2022-12-07T23:34:16.591Z,2.50
2022-12-07T23:36:44.503Z,2.50
2022-12-07T23:39:12.639Z,2.40
2022-12-07T23:41:40.947Z,2.40
2022-12-07T23:44:08.988Z,4.30
2022-12-07T23:46:36.986Z,2.30
2022-12-07T23:49:06.695Z,2.30
2022-12-07T23:51:35.175Z,2.30
2022-12-07T23:54:03.420Z,2.30
2022-12-07T23:56:34.055Z,2.20
2022-12-07T23:59:02.882Z,3.10
